createdAt,value
2022-11-29T00:00:35.193Z,78.8
2022-11-29T00:02:34.845Z,36.0
2022-11-29T00:04:34.692Z,42.8
2022-11-29T00:06:34.844Z,54.9
2022-11-29T00:08:34.028Z,143.4
2022-11-29T00:10:35.798Z,43.1
2022-11-29T00:12:32.694Z,35.4
2022-11-29T00:14:32.289Z,34.2
2022-11-29T00:16:32.479Z,30.2
2022-11-29T00:18:32.284Z,35.8
2022-11-29T00:20:32.181Z,31.5
2022-11-29T00:22:30.873Z,30.9
2022-11-29T00:24:31.520Z,31.9
2022-11-29T00:28:30.193Z,35.7
2022-11-29T00:30:30.026Z,29.9
2022-11-29T00:32:28.834Z,30.4
2022-11-29T00:34:28.630Z,29.3
2022-11-29T00:36:29.939Z,27.9
2022-11-29T00:38:27.694Z,26.7
2022-11-29T00:40:27.309Z,26.7
2022-11-29T00:42:27.056Z,26.9
2022-11-29T00:48:26.096Z,28.2
2022-11-29T00:50:25.883Z,30.6
2022-11-29T00:52:25.508Z,28.5
2022-11-29T00:54:25.671Z,30.8
2022-11-29T00:56:24.699Z,32.1
2022-11-29T00:58:24.002Z,34.0
2022-11-29T01:00:23.934Z,34.6
2022-11-29T01:04:22.799Z,32.4
2022-11-29T01:06:22.672Z,31.6
2022-11-29T01:10:21.940Z,34.5
2022-11-29T01:14:21.328Z,27.9
2022-11-29T01:16:21.336Z,29.7
2022-11-29T01:18:20.256Z,28.7
2022-11-29T01:20:20.839Z,29.4
2022-11-29T01:22:19.257Z,27.2
2022-11-29T01:24:21.172Z,32.4
2022-11-29T01:26:21.940Z,27.8
2022-11-29T01:28:17.986Z,28.5
2022-11-29T01:30:17.830Z,27.7
2022-11-29T01:32:17.588Z,27.8
2022-11-29T01:34:16.786Z,28.8
2022-11-29T01:36:16.499Z,31.5
2022-11-29T01:38:16.615Z,31.0
2022-11-29T01:40:16.111Z,30.0
2022-11-29T01:42:15.235Z,29.4
2022-11-29T01:44:34.492Z,28.3
2022-11-29T01:46:14.351Z,27.8
2022-11-29T01:48:14.066Z,30.6
2022-11-29T01:50:14.262Z,27.3
2022-11-29T01:52:16.936Z,30.2
2022-11-29T01:54:13.705Z,34.5
2022-11-29T01:56:14.461Z,29.4
2022-11-29T01:58:13.320Z,24.0
2022-11-29T02:00:14.493Z,21.1
2022-11-29T02:02:15.145Z,36.9
2022-11-29T02:04:11.622Z,23.6
2022-11-29T02:06:10.477Z,29.0
2022-11-29T02:10:10.103Z,35.3
2022-11-29T02:12:19.582Z,24.7
2022-11-29T02:14:22.078Z,31.8
2022-11-29T02:18:11.438Z,23.7
2022-11-29T02:20:27.247Z,23.8
2022-11-29T02:22:13.378Z,26.9
2022-11-29T02:24:26.647Z,24.2
2022-11-29T02:26:17.618Z,23.2
2022-11-29T02:28:25.418Z,24.0
2022-11-29T02:30:17.801Z,25.8
2022-11-29T02:32:24.596Z,27.9
2022-11-29T02:34:24.179Z,23.5
2022-11-29T02:36:17.520Z,26.4
2022-11-29T02:38:18.004Z,24.5
2022-11-29T02:40:20.046Z,22.0
2022-11-29T02:42:22.517Z,26.2
2022-11-29T02:44:21.507Z,26.3
2022-11-29T02:46:09.674Z,25.0
2022-11-29T02:48:14.637Z,24.3
2022-11-29T02:50:18.242Z,29.8
2022-11-29T02:52:03.964Z,23.0
2022-11-29T02:54:07.398Z,23.6
2022-11-29T02:56:10.087Z,25.2
2022-11-29T02:58:08.703Z,22.3
2022-11-29T03:00:04.100Z,20.8
2022-11-29T03:02:08.774Z,20.5
2022-11-29T03:04:05.970Z,22.7
2022-11-29T03:06:11.089Z,21.8
2022-11-29T03:10:04.316Z,24.0
2022-11-29T03:12:07.070Z,21.9
2022-11-29T03:14:10.076Z,25.2
2022-11-29T03:16:02.912Z,22.4
2022-11-29T03:18:07.808Z,27.3
2022-11-29T03:20:05.484Z,26.7
2022-11-29T03:22:06.557Z,25.9
2022-11-29T03:23:58.018Z,38.2
2022-11-29T03:26:00.848Z,187.2
2022-11-29T03:28:00.888Z,27.7
2022-11-29T03:29:57.203Z,25.5
2022-11-29T03:32:00.091Z,20.7
2022-11-29T03:33:59.840Z,18.0
2022-11-29T03:36:00.142Z,19.6
2022-11-29T03:37:58.095Z,33.9
2022-11-29T03:39:55.676Z,16.6
2022-11-29T03:41:58.279Z,24.9
2022-11-29T03:43:56.229Z,16.4
2022-11-29T03:45:57.745Z,19.9
2022-11-29T03:47:55.603Z,19.3
2022-11-29T03:49:53.561Z,17.5
2022-11-29T03:51:58.180Z,18.1
2022-11-29T03:53:53.604Z,18.6
2022-11-29T03:55:53.694Z,19.6
2022-11-29T03:57:57.851Z,18.9
2022-11-29T03:59:55.091Z,15.6
2022-11-29T04:02:05.294Z,18.8
2022-11-29T04:04:04.897Z,22.3
2022-11-29T04:06:02.725Z,22.3
2022-11-29T04:07:57.233Z,29.3
2022-11-29T04:10:02.371Z,21.0
2022-11-29T04:11:59.095Z,18.4
2022-11-29T04:13:58.745Z,20.6
2022-11-29T04:16:02.560Z,34.4
2022-11-29T04:18:00.836Z,29.0
2022-11-29T04:19:59.227Z,16.1
2022-11-29T04:21:59.125Z,16.8
2022-11-29T04:23:54.680Z,16.6
2022-11-29T04:26:00.667Z,16.2
2022-11-29T04:27:48.548Z,14.5
2022-11-29T04:29:59.417Z,14.8
2022-11-29T04:31:55.808Z,15.5
2022-11-29T04:33:59.221Z,16.3
2022-11-29T04:35:52.625Z,15.6
2022-11-29T04:37:57.506Z,15.0
2022-11-29T04:39:55.978Z,16.5
2022-11-29T04:41:56.818Z,16.1
2022-11-29T04:45:48.371Z,18.4
2022-11-29T04:47:51.225Z,20.5
2022-11-29T04:49:52.131Z,15.6
2022-11-29T04:53:49.536Z,18.5
2022-11-29T04:55:43.242Z,16.3
2022-11-29T04:57:39.458Z,16.1
2022-11-29T04:59:41.788Z,17.0
2022-11-29T05:01:45.217Z,16.7
2022-11-29T05:03:38.000Z,18.3
2022-11-29T05:05:41.069Z,17.3
2022-11-29T05:09:40.910Z,16.7
2022-11-29T05:11:42.673Z,15.8
2022-11-29T05:13:39.862Z,15.9
2022-11-29T05:15:47.918Z,17.6
2022-11-29T05:17:37.553Z,16.3
2022-11-29T05:19:44.963Z,16.8
2022-11-29T05:21:41.562Z,19.1
2022-11-29T05:23:44.657Z,16.3
2022-11-29T05:25:39.216Z,16.3
2022-11-29T05:27:40.859Z,19.7
2022-11-29T05:29:35.116Z,19.8
2022-11-29T05:31:45.794Z,20.4
2022-11-29T05:33:45.960Z,19.2
2022-11-29T05:35:40.142Z,19.0
2022-11-29T05:37:37.510Z,17.8
2022-11-29T05:39:36.333Z,17.6
2022-11-29T05:41:41.368Z,16.1
2022-11-29T05:43:42.314Z,14.2
2022-11-29T05:45:28.396Z,14.0
2022-11-29T05:47:31.748Z,17.6
2022-11-29T05:49:33.384Z,17.8
2022-11-29T05:51:36.098Z,17.8
2022-11-29T05:53:27.536Z,17.1
2022-11-29T05:55:32.623Z,15.9
2022-11-29T05:57:31.133Z,19.8
2022-11-29T05:59:26.236Z,18.8
2022-11-29T06:01:23.813Z,18.7
2022-11-29T06:03:29.298Z,20.6
2022-11-29T06:05:28.912Z,17.9
2022-11-29T06:07:25.839Z,19.6
2022-11-29T06:09:26.465Z,20.7
2022-11-29T06:11:23.320Z,18.3
2022-11-29T06:13:24.601Z,19.0
2022-11-29T06:15:37.635Z,18.0
2022-11-29T06:17:39.300Z,17.4
2022-11-29T06:19:30.133Z,18.2
2022-11-29T06:21:29.832Z,17.1
2022-11-29T06:25:35.138Z,21.6
2022-11-29T06:27:34.320Z,19.4
2022-11-29T06:29:22.929Z,18.7
2022-11-29T06:31:20.230Z,19.4
2022-11-29T06:33:21.758Z,19.2
2022-11-29T06:35:33.632Z,18.0
2022-11-29T06:37:19.186Z,18.4
2022-11-29T06:39:13.653Z,19.1
2022-11-29T06:41:17.819Z,21.5
2022-11-29T06:43:12.890Z,22.1
2022-11-29T06:45:13.509Z,19.9
2022-11-29T06:47:18.419Z,21.6
2022-11-29T06:49:17.478Z,23.4
2022-11-29T06:51:19.716Z,23.6
2022-11-29T06:53:18.682Z,22.4
2022-11-29T06:55:17.528Z,20.3
2022-11-29T06:57:18.899Z,21.3
2022-11-29T06:59:23.500Z,19.5
2022-11-29T07:01:19.307Z,19.8
2022-11-29T07:03:24.596Z,17.5
2022-11-29T07:05:19.334Z,19.6
2022-11-29T07:07:14.122Z,21.1
2022-11-29T07:09:12.880Z,19.7
2022-11-29T07:11:12.708Z,17.2
2022-11-29T07:13:07.465Z,18.7
2022-11-29T07:15:12.315Z,22.0
2022-11-29T07:17:14.544Z,18.4
2022-11-29T07:19:14.873Z,18.3
2022-11-29T07:21:16.038Z,17.7
2022-11-29T07:23:13.260Z,16.9
2022-11-29T07:25:16.391Z,16.7
2022-11-29T07:27:10.417Z,18.3
2022-11-29T07:29:20.431Z,19.7
2022-11-29T07:31:10.284Z,20.2
2022-11-29T07:33:13.049Z,19.5
2022-11-29T07:35:12.156Z,21.2
2022-11-29T07:39:13.371Z,20.6
2022-11-29T07:41:10.276Z,21.2
2022-11-29T07:43:16.627Z,17.9
2022-11-29T07:45:14.060Z,16.8
2022-11-29T07:47:00.108Z,18.3
2022-11-29T07:51:00.249Z,17.3
2022-11-29T07:52:59.414Z,22.4
2022-11-29T07:54:58.708Z,20.5
2022-11-29T07:56:58.604Z,20.5
2022-11-29T07:58:58.273Z,23.6
2022-11-29T08:00:57.852Z,22.9
2022-11-29T08:02:57.042Z,19.3
2022-11-29T08:04:57.342Z,20.3
2022-11-29T08:06:58.337Z,23.8
2022-11-29T08:08:56.743Z,20.9
2022-11-29T08:10:55.668Z,25.5
2022-11-29T08:12:55.916Z,25.5
2022-11-29T08:14:54.911Z,21.5
2022-11-29T08:16:54.604Z,22.9
2022-11-29T08:18:54.338Z,22.8
2022-11-29T08:20:54.040Z,21.4
2022-11-29T08:24:53.603Z,19.6
2022-11-29T08:26:53.437Z,20.7
2022-11-29T08:28:52.516Z,21.0
2022-11-29T08:32:52.395Z,26.7
2022-11-29T08:34:51.463Z,26.1
2022-11-29T08:36:54.771Z,22.4
2022-11-29T08:38:57.148Z,24.8
2022-11-29T08:40:50.454Z,32.1
2022-11-29T08:42:50.009Z,25.4
2022-11-29T08:44:49.757Z,25.9
2022-11-29T08:46:59.332Z,26.1
2022-11-29T08:48:49.527Z,24.1
2022-11-29T08:50:49.233Z,24.2
2022-11-29T08:52:59.194Z,22.9
2022-11-29T08:54:48.217Z,23.3
2022-11-29T08:57:39.508Z,26.5
2022-11-29T08:58:47.191Z,26.8
2022-11-29T09:00:47.109Z,27.2
2022-11-29T09:02:47.039Z,27.9
2022-11-29T09:04:46.425Z,37.1
2022-11-29T09:06:48.550Z,28.2
2022-11-29T09:08:45.483Z,34.5
2022-11-29T09:10:46.505Z,32.1
2022-11-29T09:12:45.386Z,30.8
2022-11-29T09:14:45.423Z,27.4
2022-11-29T09:16:44.472Z,24.8
2022-11-29T09:18:50.017Z,25.8
2022-11-29T09:20:44.591Z,22.1
2022-11-29T09:22:43.032Z,23.2
2022-11-29T09:24:42.972Z,22.9
2022-11-29T09:26:45.940Z,23.0
2022-11-29T09:28:42.025Z,30.5
2022-11-29T09:32:41.444Z,23.4
2022-11-29T09:34:41.237Z,23.9
2022-11-29T09:36:43.113Z,29.9
2022-11-29T09:38:40.915Z,24.6
2022-11-29T09:40:47.769Z,27.5
2022-11-29T09:42:51.385Z,27.7
2022-11-29T09:44:49.081Z,29.3
2022-11-29T09:46:47.565Z,29.2
2022-11-29T09:48:58.084Z,29.8
2022-11-29T09:50:47.057Z,26.7
2022-11-29T09:52:51.190Z,26.8
2022-11-29T09:54:44.184Z,26.3
2022-11-29T09:56:41.540Z,23.5
2022-11-29T09:58:43.352Z,25.7
2022-11-29T10:00:43.977Z,24.0
2022-11-29T10:02:44.403Z,26.5
2022-11-29T10:04:40.685Z,23.8
2022-11-29T10:06:42.847Z,30.5
2022-11-29T10:08:41.190Z,28.2
2022-11-29T10:10:40.915Z,25.3
2022-11-29T10:12:39.170Z,28.5
2022-11-29T10:14:41.705Z,23.3
2022-11-29T10:18:37.508Z,24.4
2022-11-29T10:20:42.407Z,24.2
2022-11-29T10:22:41.633Z,24.6
2022-11-29T10:24:33.518Z,24.0
2022-11-29T10:26:35.372Z,23.8
2022-11-29T10:30:35.318Z,22.8
2022-11-29T10:32:32.249Z,24.0
2022-11-29T10:34:31.714Z,21.7
2022-11-29T10:36:38.407Z,24.1
2022-11-29T10:38:32.033Z,22.4
2022-11-29T10:40:34.192Z,22.5
2022-11-29T10:42:41.247Z,23.4
2022-11-29T10:44:32.276Z,28.0
2022-11-29T10:46:32.704Z,22.5
2022-11-29T10:48:32.121Z,24.5
2022-11-29T10:50:31.574Z,22.6
2022-11-29T10:52:28.466Z,25.8
2022-11-29T10:54:37.218Z,23.0
2022-11-29T10:56:34.578Z,24.5
2022-11-29T10:58:29.600Z,29.7
2022-11-29T11:00:27.554Z,23.9
2022-11-29T11:02:27.949Z,29.7
2022-11-29T11:04:30.529Z,35.4
2022-11-29T11:06:37.558Z,26.9
2022-11-29T11:08:27.554Z,28.1
2022-11-29T11:10:28.676Z,26.7
2022-11-29T11:12:27.726Z,29.7
2022-11-29T11:14:26.712Z,26.2
2022-11-29T11:16:25.850Z,27.8
2022-11-29T11:18:28.274Z,25.9
2022-11-29T11:20:27.205Z,26.3
2022-11-29T11:22:25.526Z,26.5
2022-11-29T11:24:26.176Z,24.0
2022-11-29T11:26:25.050Z,25.5
2022-11-29T11:28:26.134Z,30.2
2022-11-29T11:30:26.063Z,25.0
2022-11-29T11:32:22.787Z,25.7
2022-11-29T11:34:28.909Z,22.7
2022-11-29T11:36:23.130Z,24.9
2022-11-29T11:38:21.175Z,23.8
2022-11-29T11:40:28.016Z,21.2
2022-11-29T11:42:34.035Z,24.4
2022-11-29T11:44:47.214Z,22.4
2022-11-29T11:46:20.083Z,23.4
2022-11-29T11:52:23.635Z,20.9
2022-11-29T11:54:19.635Z,27.0
2022-11-29T11:56:18.935Z,23.3
2022-11-29T11:58:22.010Z,23.9
2022-11-29T12:01:02.367Z,21.1
2022-11-29T12:02:24.809Z,22.6
2022-11-29T12:04:21.517Z,20.9
2022-11-29T12:06:26.532Z,24.7
2022-11-29T12:08:16.939Z,19.2
2022-11-29T12:12:20.377Z,23.5
2022-11-29T12:14:24.793Z,25.9
2022-11-29T12:18:24.253Z,22.9
2022-11-29T12:20:23.231Z,20.4
2022-11-29T12:22:21.592Z,18.0
2022-11-29T12:24:20.855Z,21.8
2022-11-29T12:26:48.908Z,20.6
2022-11-29T12:28:20.377Z,21.1
2022-11-29T12:30:13.999Z,25.5
2022-11-29T12:32:25.754Z,21.9
2022-11-29T12:34:25.572Z,22.8
2022-11-29T12:36:21.378Z,29.9
2022-11-29T12:38:26.303Z,37.8
2022-11-29T12:40:18.977Z,38.6
2022-11-29T12:42:20.769Z,45.8
2022-11-29T12:44:22.891Z,46.3
2022-11-29T12:46:15.299Z,70.1
2022-11-29T12:48:23.102Z,74.0
2022-11-29T12:50:22.993Z,53.1
2022-11-29T12:52:17.487Z,54.3
2022-11-29T12:54:27.934Z,43.3
2022-11-29T12:56:15.610Z,45.4
2022-11-29T12:58:17.886Z,38.7
2022-11-29T13:00:11.285Z,40.9
2022-11-29T13:02:25.368Z,40.8
2022-11-29T13:04:17.840Z,40.2
2022-11-29T13:06:20.439Z,41.5
2022-11-29T13:08:23.688Z,43.1
2022-11-29T13:10:20.922Z,40.8
2022-11-29T13:12:15.861Z,41.0
2022-11-29T13:14:41.447Z,42.2
2022-11-29T13:18:18.867Z,45.2
2022-11-29T13:20:18.793Z,37.1
2022-11-29T13:22:13.275Z,43.3
2022-11-29T13:24:10.496Z,37.9
2022-11-29T13:26:08.952Z,40.4
2022-11-29T13:28:06.916Z,41.9
2022-11-29T13:30:04.898Z,36.8
2022-11-29T13:32:12.961Z,36.2
2022-11-29T13:34:08.433Z,35.1
2022-11-29T13:36:13.214Z,37.5
2022-11-29T13:38:12.536Z,34.5
2022-11-29T13:40:17.644Z,35.0
2022-11-29T13:42:07.848Z,37.7
2022-11-29T13:44:12.194Z,33.6
2022-11-29T13:46:10.424Z,38.5
2022-11-29T13:48:24.924Z,33.6
2022-11-29T13:50:03.823Z,34.5
2022-11-29T13:52:04.519Z,34.6
2022-11-29T13:54:02.608Z,32.6
2022-11-29T13:56:00.859Z,34.5
2022-11-29T13:58:17.410Z,33.5
2022-11-29T13:59:59.339Z,36.4
2022-11-29T14:01:59.251Z,38.5
2022-11-29T14:04:02.676Z,42.2
2022-11-29T14:06:08.459Z,48.2
2022-11-29T14:08:18.205Z,42.3
2022-11-29T14:10:00.945Z,37.7
2022-11-29T14:12:02.762Z,42.6
2022-11-29T14:14:04.118Z,54.9
2022-11-29T14:15:59.931Z,55.4
2022-11-29T14:17:58.597Z,48.3
2022-11-29T14:20:15.961Z,43.1
2022-11-29T14:22:15.651Z,38.4
2022-11-29T14:24:15.354Z,42.9
2022-11-29T14:26:15.013Z,30.8
2022-11-29T14:27:58.564Z,34.1
2022-11-29T14:29:55.123Z,31.1
2022-11-29T14:31:54.866Z,32.3
2022-11-29T14:34:04.846Z,33.1
2022-11-29T14:36:03.597Z,32.0
2022-11-29T14:38:03.671Z,33.8
2022-11-29T14:39:57.422Z,31.6
2022-11-29T14:42:00.724Z,35.6
2022-11-29T14:44:03.853Z,31.2
2022-11-29T14:46:12.070Z,35.9
2022-11-29T14:47:52.572Z,33.0
2022-11-29T14:49:54.583Z,35.0
2022-11-29T14:52:06.045Z,31.3
2022-11-29T14:54:03.869Z,31.8
2022-11-29T14:55:50.770Z,34.2
2022-11-29T14:57:51.991Z,32.4
2022-11-29T14:59:52.385Z,34.7
2022-11-29T15:01:50.283Z,29.9
2022-11-29T15:03:49.892Z,30.4
2022-11-29T15:05:55.775Z,32.6
2022-11-29T15:08:00.393Z,29.9
2022-11-29T15:09:50.342Z,28.1
2022-11-29T15:11:54.202Z,32.5
2022-11-29T15:13:58.513Z,30.8
2022-11-29T15:16:09.102Z,29.3
2022-11-29T15:17:54.089Z,29.1
2022-11-29T15:20:03.827Z,26.6
2022-11-29T15:21:54.492Z,28.6
2022-11-29T15:23:46.521Z,30.2
2022-11-29T15:25:47.964Z,26.7
2022-11-29T15:27:51.763Z,28.3
2022-11-29T15:29:47.438Z,30.0
2022-11-29T15:31:51.232Z,28.7
2022-11-29T15:33:47.533Z,34.0
2022-11-29T15:35:48.866Z,27.8
2022-11-29T15:37:47.797Z,29.1
2022-11-29T15:39:44.650Z,30.4
2022-11-29T15:41:44.250Z,30.7
2022-11-29T15:43:48.323Z,27.3
2022-11-29T15:45:47.206Z,30.2
2022-11-29T15:47:42.804Z,31.1
2022-11-29T15:49:42.953Z,34.6
2022-11-29T15:51:44.687Z,31.3
2022-11-29T15:53:46.344Z,27.6
2022-11-29T15:57:47.069Z,25.8
2022-11-29T15:59:44.968Z,25.9
2022-11-29T16:01:43.108Z,28.6
2022-11-29T16:03:44.859Z,35.4
2022-11-29T16:05:40.375Z,32.8
2022-11-29T16:07:40.933Z,35.8
2022-11-29T16:09:43.338Z,28.4
2022-11-29T16:11:39.965Z,30.8
2022-11-29T16:13:40.796Z,34.1
2022-11-29T16:15:39.996Z,32.8
2022-11-29T16:19:39.754Z,30.4
2022-11-29T16:21:37.641Z,31.7
2022-11-29T16:23:41.263Z,50.5
2022-11-29T16:25:49.266Z,44.1
2022-11-29T16:27:36.701Z,29.9
2022-11-29T16:29:40.740Z,31.5
2022-11-29T16:31:37.355Z,31.4
2022-11-29T16:33:37.407Z,33.4
2022-11-29T16:35:35.768Z,30.7
2022-11-29T16:39:37.595Z,31.6
2022-11-29T16:41:37.628Z,28.4
2022-11-29T16:43:47.433Z,28.8
2022-11-29T16:45:35.999Z,27.6
2022-11-29T16:47:47.468Z,30.4
2022-11-29T16:49:35.323Z,25.9
2022-11-29T16:51:37.807Z,30.8
2022-11-29T16:53:34.063Z,28.4
2022-11-29T16:55:32.044Z,29.3
2022-11-29T16:57:32.043Z,27.9
2022-11-29T16:59:32.012Z,24.9
2022-11-29T17:01:31.070Z,27.4
2022-11-29T17:03:30.927Z,28.3
2022-11-29T17:05:31.233Z,28.2
2022-11-29T17:07:34.435Z,24.9
2022-11-29T17:09:31.625Z,30.3
2022-11-29T17:11:29.408Z,25.2
2022-11-29T17:13:29.035Z,27.6
2022-11-29T17:15:28.945Z,25.4
2022-11-29T17:17:28.421Z,28.9
2022-11-29T17:19:28.642Z,26.7
2022-11-29T17:21:29.123Z,25.8
2022-11-29T17:23:27.411Z,25.0
2022-11-29T17:25:27.002Z,33.9
2022-11-29T17:27:26.946Z,29.0
2022-11-29T17:29:26.568Z,26.3
2022-11-29T17:31:26.551Z,27.6
2022-11-29T17:33:28.965Z,27.7
2022-11-29T17:35:25.598Z,28.4
2022-11-29T17:37:25.115Z,26.9
2022-11-29T17:39:24.648Z,28.6
2022-11-29T17:41:27.588Z,25.6
2022-11-29T17:43:23.986Z,24.7
2022-11-29T17:45:23.499Z,29.5
2022-11-29T17:47:23.158Z,24.7
2022-11-29T17:51:50.661Z,28.7
2022-11-29T17:53:22.168Z,25.5
2022-11-29T17:55:24.694Z,25.8
2022-11-29T17:57:21.938Z,26.4
2022-11-29T17:59:21.644Z,25.6
2022-11-29T18:01:22.572Z,28.3
2022-11-29T18:03:20.291Z,27.4
2022-11-29T18:05:19.901Z,27.1
2022-11-29T18:07:19.539Z,26.8
2022-11-29T18:09:19.173Z,30.6
2022-11-29T18:11:21.699Z,30.6
2022-11-29T18:13:18.728Z,31.3
2022-11-29T18:15:18.020Z,31.7
2022-11-29T18:17:17.892Z,29.6
2022-11-29T18:19:19.462Z,31.2
2022-11-29T18:21:17.340Z,30.6
2022-11-29T18:23:16.882Z,31.6
2022-11-29T18:25:38.345Z,27.8
2022-11-29T18:27:15.902Z,27.4
2022-11-29T18:29:15.529Z,25.8
2022-11-29T18:31:17.892Z,24.4
2022-11-29T18:33:14.547Z,26.6
2022-11-29T18:35:14.400Z,24.5
2022-11-29T18:37:20.068Z,28.9
2022-11-29T18:39:15.591Z,28.5
2022-11-29T18:41:15.142Z,26.7
2022-11-29T18:43:15.225Z,27.5
2022-11-29T18:45:12.635Z,24.5
2022-11-29T18:47:12.003Z,30.6
2022-11-29T18:51:13.824Z,30.9
2022-11-29T18:53:12.745Z,28.4
2022-11-29T18:55:10.241Z,31.7
2022-11-29T18:57:10.011Z,28.2
2022-11-29T18:59:12.657Z,34.4
2022-11-29T19:01:11.524Z,36.5
2022-11-29T19:03:08.774Z,36.9
2022-11-29T19:05:08.707Z,32.6
2022-11-29T19:07:08.339Z,33.9
2022-11-29T19:09:11.641Z,32.3
2022-11-29T19:11:08.908Z,29.1
2022-11-29T19:13:06.651Z,31.6
2022-11-29T19:15:07.035Z,30.7
2022-11-29T19:17:05.908Z,30.9
2022-11-29T19:19:06.335Z,31.0
2022-11-29T19:21:05.930Z,30.1
2022-11-29T19:25:04.979Z,30.3
2022-11-29T19:27:04.262Z,33.7
2022-11-29T19:29:03.875Z,29.7
2022-11-29T19:31:04.599Z,29.9
2022-11-29T19:33:03.657Z,32.2
2022-11-29T19:35:02.425Z,35.9
2022-11-29T19:37:02.212Z,33.8
2022-11-29T19:39:02.227Z,36.6
2022-11-29T19:41:06.318Z,33.0
2022-11-29T19:43:02.303Z,31.7
2022-11-29T19:45:16.519Z,34.1
2022-11-29T19:46:59.926Z,34.6
2022-11-29T19:49:00.535Z,32.7
2022-11-29T19:50:59.651Z,35.1
2022-11-29T19:52:59.198Z,33.4
2022-11-29T19:54:59.135Z,37.5
2022-11-29T19:56:58.858Z,35.1
2022-11-29T19:58:58.942Z,36.4
2022-11-29T20:01:04.053Z,31.8
2022-11-29T20:02:57.048Z,34.2
2022-11-29T20:04:56.519Z,32.3
2022-11-29T20:06:57.076Z,46.4
2022-11-29T20:08:56.252Z,40.9
2022-11-29T20:10:55.809Z,40.7
2022-11-29T20:12:55.166Z,39.7
2022-11-29T20:14:54.941Z,44.6
2022-11-29T20:16:54.683Z,43.2
2022-11-29T20:18:55.512Z,41.7
2022-11-29T20:20:53.465Z,37.9
2022-11-29T20:22:53.049Z,42.4
2022-11-29T20:26:52.359Z,40.0
2022-11-29T20:28:52.363Z,37.8
2022-11-29T20:30:51.892Z,38.7
2022-11-29T20:32:51.492Z,45.0
2022-11-29T20:34:51.359Z,42.4
2022-11-29T20:37:07.066Z,46.5
2022-11-29T20:38:57.528Z,46.4
2022-11-29T20:41:02.337Z,51.9
2022-11-29T20:43:05.393Z,71.8
2022-11-29T20:44:52.793Z,73.1
2022-11-29T20:46:48.913Z,108.6
2022-11-29T20:48:50.205Z,81.1
2022-11-29T20:50:53.142Z,83.9
2022-11-29T20:52:55.320Z,101.8
2022-11-29T20:54:47.015Z,107.7
2022-11-29T20:56:46.778Z,105.5
2022-11-29T20:58:46.791Z,106.3
2022-11-29T21:00:47.056Z,95.1
2022-11-29T21:02:46.384Z,98.9
2022-11-29T21:04:45.938Z,77.6
2022-11-29T21:06:44.842Z,63.6
2022-11-29T21:08:44.620Z,50.4
2022-11-29T21:10:44.679Z,51.8
2022-11-29T21:12:44.997Z,56.5
2022-11-29T21:14:44.059Z,91.0
2022-11-29T21:16:43.244Z,57.3
2022-11-29T21:18:43.032Z,112.4
2022-11-29T21:20:44.017Z,51.4
2022-11-29T21:22:49.698Z,139.4
2022-11-29T21:24:51.681Z,84.0
2022-11-29T21:26:49.127Z,112.1
2022-11-29T21:28:51.504Z,161.4
2022-11-29T21:30:42.452Z,48.7
2022-11-29T21:32:41.040Z,89.5
2022-11-29T21:34:39.912Z,116.2
2022-11-29T21:36:39.974Z,61.8
2022-11-29T21:38:39.332Z,44.2
2022-11-29T21:40:38.665Z,50.5
2022-11-29T21:42:38.859Z,67.1
2022-11-29T21:44:38.234Z,80.4
2022-11-29T21:46:37.691Z,85.5
2022-11-29T21:48:37.249Z,63.9
2022-11-29T21:50:37.100Z,62.6
2022-11-29T21:52:36.908Z,58.1
2022-11-29T21:54:36.456Z,80.8
2022-11-29T21:56:35.744Z,89.3
2022-11-29T21:58:37.397Z,58.5
2022-11-29T22:00:37.563Z,62.7
2022-11-29T22:02:34.675Z,103.2
2022-11-29T22:04:34.256Z,61.8
2022-11-29T22:06:35.730Z,62.0
2022-11-29T22:08:34.597Z,62.6
2022-11-29T22:10:33.166Z,66.2
2022-11-29T22:12:34.572Z,77.5
2022-11-29T22:14:32.582Z,85.3
2022-11-29T22:16:32.451Z,60.9
2022-11-29T22:18:32.059Z,89.5
2022-11-29T22:20:31.301Z,56.5
2022-11-29T22:22:31.022Z,59.6
2022-11-29T22:24:32.286Z,85.5
2022-11-29T22:26:30.176Z,76.9
2022-11-29T22:28:29.759Z,67.9
2022-11-29T22:30:29.377Z,73.9
2022-11-29T22:32:29.098Z,62.7
2022-11-29T22:34:28.775Z,68.2
2022-11-29T22:36:28.482Z,67.9
2022-11-29T22:38:28.624Z,75.2
2022-11-29T22:40:27.943Z,65.5
2022-11-29T22:42:27.861Z,90.8
2022-11-29T22:46:27.676Z,55.6
2022-11-29T22:48:26.200Z,100.4
2022-11-29T22:50:25.880Z,99.1
2022-11-29T22:52:26.833Z,58.7
2022-11-29T22:54:25.028Z,74.9
2022-11-29T22:56:26.322Z,56.7
2022-11-29T22:58:24.407Z,68.6
2022-11-29T23:02:23.734Z,75.6
2022-11-29T23:06:24.940Z,120.8
2022-11-29T23:08:24.315Z,66.9
2022-11-29T23:10:22.459Z,54.8
2022-11-29T23:12:22.342Z,54.5
2022-11-29T23:14:23.813Z,66.8
2022-11-29T23:16:23.212Z,64.5
2022-11-29T23:18:20.757Z,62.6
2022-11-29T23:20:20.470Z,59.5
2022-11-29T23:22:20.139Z,61.9
2022-11-29T23:24:19.695Z,55.5
2022-11-29T23:26:22.010Z,57.1
2022-11-29T23:30:18.924Z,70.9
2022-11-29T23:32:18.432Z,65.0
2022-11-29T23:34:18.905Z,71.0
2022-11-29T23:36:18.208Z,86.4
2022-11-29T23:38:17.907Z,86.5
2022-11-29T23:40:16.798Z,56.6
2022-11-29T23:42:16.433Z,61.7
2022-11-29T23:44:16.110Z,69.1
2022-11-29T23:46:18.357Z,59.0
2022-11-29T23:48:15.524Z,58.6
2022-11-29T23:50:15.087Z,82.1
2022-11-29T23:52:15.102Z,69.8
2022-11-29T23:54:14.300Z,74.3
2022-11-29T23:56:15.553Z,95.4
2022-11-29T23:58:14.171Z,71.3
